createdAt,value
2022-10-27T00:00:43.441Z,6.40
2022-10-27T00:05:40.744Z,6.72
2022-10-27T00:10:34.321Z,7.10
2022-10-27T00:15:27.710Z,7.63
2022-10-27T00:20:22.563Z,7.45
2022-10-27T00:25:17.461Z,7.18
2022-10-27T00:30:11.977Z,7.50
2022-10-27T00:35:06.031Z,6.97
2022-10-27T00:39:59.353Z,6.63
2022-10-27T00:44:54.156Z,7.45
2022-10-27T00:49:57.957Z,6.75
2022-10-27T00:54:52.051Z,7.72
2022-10-27T00:59:45.533Z,7.53
2022-10-27T01:04:46.718Z,7.38
2022-10-27T01:09:44.361Z,7.18
2022-10-27T01:14:38.551Z,7.45
2022-10-27T01:20:10.966Z,7.20
2022-10-27T01:25:35.574Z,7.18
2022-10-27T01:30:31.888Z,6.78
2022-10-27T01:35:35.473Z,7.00
2022-10-27T01:40:41.155Z,6.70
2022-10-27T01:45:41.757Z,6.35
2022-10-27T01:50:50.827Z,7.35
2022-10-27T01:56:05.811Z,8.27
2022-10-27T02:01:13.993Z,8.18
2022-10-27T02:06:16.790Z,7.18
2022-10-27T02:11:11.778Z,7.78
2022-10-27T02:16:10.163Z,7.93
2022-10-27T02:21:07.850Z,6.97
2022-10-27T02:26:32.778Z,7.88
2022-10-27T02:31:30.648Z,7.30
2022-10-27T02:36:24.762Z,6.70
2022-10-27T02:41:22.095Z,7.50
2022-10-27T02:46:15.721Z,7.07
2022-10-27T02:51:13.055Z,6.57
2022-10-27T02:56:10.568Z,6.25
2022-10-27T03:01:09.429Z,6.90
2022-10-27T03:06:05.983Z,7.37
2022-10-27T03:11:00.094Z,7.18
2022-10-27T03:27:23.335Z,7.45
2022-10-27T03:32:21.397Z,7.30
2022-10-27T03:37:21.798Z,8.18
2022-10-27T03:42:16.207Z,7.65
2022-10-27T03:47:09.862Z,7.97
2022-10-27T03:52:06.337Z,11.73
2022-10-27T03:57:01.150Z,8.32
2022-10-27T04:01:56.774Z,8.77
2022-10-27T04:06:56.510Z,8.52
2022-10-27T04:11:50.096Z,8.20
2022-10-27T04:16:45.129Z,7.63
2022-10-27T04:22:05.903Z,8.20
2022-10-27T04:27:02.928Z,7.75
2022-10-27T04:32:00.542Z,8.48
2022-10-27T04:36:55.937Z,10.63
2022-10-27T04:41:50.749Z,9.55
2022-10-27T04:46:44.450Z,11.65
2022-10-27T04:51:42.457Z,13.68
2022-10-27T04:56:36.845Z,13.80
2022-10-27T05:01:31.994Z,11.23
2022-10-27T05:06:26.604Z,12.85
2022-10-27T05:11:21.622Z,12.13
2022-10-27T05:16:16.941Z,12.13
2022-10-27T05:21:10.639Z,11.93
2022-10-27T05:26:13.107Z,13.70
2022-10-27T05:31:07.745Z,11.00
2022-10-27T05:36:00.889Z,10.77
2022-10-27T05:40:57.371Z,11.18
2022-10-27T05:45:50.566Z,11.05
2022-10-27T05:50:45.043Z,12.35
2022-10-27T05:55:38.268Z,15.90
2022-10-27T06:00:33.380Z,14.60
2022-10-27T06:05:27.074Z,16.35
2022-10-27T06:10:21.827Z,13.32
2022-10-27T06:15:15.508Z,14.18
2022-10-27T06:20:09.412Z,13.45
2022-10-27T06:25:02.475Z,9.60
2022-10-27T06:29:56.960Z,9.02
2022-10-27T06:34:50.040Z,9.88
2022-10-27T06:39:43.137Z,10.15
2022-10-27T06:44:36.189Z,11.35
2022-10-27T06:49:33.450Z,12.48
2022-10-27T06:54:27.106Z,10.20
2022-10-27T06:59:20.178Z,10.65
2022-10-27T07:04:13.252Z,10.73
2022-10-27T07:09:09.821Z,12.20
2022-10-27T07:14:03.316Z,17.40
2022-10-27T07:18:56.489Z,10.20
2022-10-27T07:23:49.532Z,9.88
2022-10-27T07:28:43.968Z,11.30
2022-10-27T07:33:37.122Z,10.40
2022-10-27T07:38:32.771Z,8.90
2022-10-27T07:43:25.861Z,7.55
2022-10-27T07:48:20.368Z,7.85
2022-10-27T07:53:15.524Z,7.40
2022-10-27T07:58:11.100Z,7.72
2022-10-27T08:03:05.144Z,7.32
2022-10-27T08:08:00.433Z,7.95
2022-10-27T08:12:53.653Z,7.90
2022-10-27T08:17:52.068Z,8.35
2022-10-27T08:22:45.482Z,8.48
2022-10-27T08:27:40.171Z,8.05
2022-10-27T08:37:27.406Z,7.38
2022-10-27T08:42:34.711Z,7.28
2022-10-27T08:47:29.794Z,7.70
2022-10-27T08:52:29.223Z,7.93
2022-10-27T08:57:26.646Z,7.63
2022-10-27T09:02:50.696Z,7.88
2022-10-27T09:07:53.049Z,8.15
2022-10-27T09:13:03.177Z,8.27
2022-10-27T09:18:03.776Z,9.02
2022-10-27T09:23:00.796Z,9.00
2022-10-27T09:27:56.017Z,9.18
2022-10-27T09:32:53.931Z,9.23
2022-10-27T09:37:49.186Z,8.77
2022-10-27T09:42:42.657Z,9.60
2022-10-27T09:47:39.914Z,9.10
2022-10-27T09:52:36.905Z,9.32
2022-10-27T09:57:35.334Z,8.98
2022-10-27T10:02:32.622Z,9.60
2022-10-27T10:07:33.248Z,9.27
2022-10-27T10:12:27.487Z,9.73
2022-10-27T10:17:29.572Z,10.05
2022-10-27T10:22:28.934Z,10.10
2022-10-27T10:27:31.345Z,10.25
2022-10-27T10:32:26.818Z,11.25
2022-10-27T10:37:37.481Z,9.93
2022-10-27T10:42:30.605Z,10.48
2022-10-27T10:47:29.321Z,9.05
2022-10-27T10:52:25.824Z,8.90
2022-10-27T10:57:32.049Z,9.27
2022-10-27T11:02:30.221Z,8.52
2022-10-27T11:07:27.011Z,8.13
2022-10-27T11:12:29.307Z,5.72
2022-10-27T11:17:25.146Z,6.57
2022-10-27T11:22:22.133Z,5.88
2022-10-27T11:27:21.189Z,5.60
2022-10-27T11:32:21.498Z,5.20
2022-10-27T11:37:23.727Z,4.78
2022-10-27T11:42:27.393Z,5.10
2022-10-27T11:47:31.217Z,4.32
2022-10-27T11:52:30.254Z,4.05
2022-10-27T11:57:39.740Z,3.75
2022-10-27T12:07:55.500Z,3.83
2022-10-27T12:12:52.223Z,3.50
2022-10-27T12:17:51.278Z,3.03
2022-10-27T12:22:51.605Z,2.90
2022-10-27T12:27:51.166Z,3.00
2022-10-27T12:32:52.099Z,3.00
2022-10-27T12:37:58.980Z,3.15
2022-10-27T12:43:04.509Z,2.97
2022-10-27T12:48:09.152Z,2.55
2022-10-27T12:53:13.089Z,3.03
2022-10-27T12:58:11.938Z,2.90
2022-10-27T13:03:39.827Z,2.53
2022-10-27T13:08:56.348Z,3.10
2022-10-27T13:14:12.095Z,3.22
2022-10-27T13:19:20.569Z,3.03
2022-10-27T13:24:30.184Z,3.28
2022-10-27T13:29:35.231Z,2.60
2022-10-27T13:34:29.813Z,2.80
2022-10-27T13:39:47.937Z,2.50
2022-10-27T13:44:41.261Z,2.58
2022-10-27T13:50:00.234Z,2.75
2022-10-27T13:54:56.048Z,2.72
2022-10-27T13:59:50.818Z,3.60
2022-10-27T14:04:51.265Z,3.00
2022-10-27T14:09:49.489Z,3.13
2022-10-27T14:14:42.963Z,3.60
2022-10-27T14:19:38.899Z,3.60
2022-10-27T14:24:47.292Z,3.92
2022-10-27T14:29:40.541Z,3.92
2022-10-27T14:34:36.480Z,4.80
2022-10-27T14:39:34.338Z,5.38
2022-10-27T14:44:31.422Z,4.68
2022-10-27T14:49:33.759Z,4.72
2022-10-27T14:54:30.214Z,4.95
2022-10-27T14:59:25.463Z,4.50
2022-10-27T15:04:25.465Z,5.03
2022-10-27T15:09:31.939Z,5.63
2022-10-27T15:14:25.618Z,5.80
2022-10-27T15:19:22.522Z,6.65
2022-10-27T15:24:18.810Z,6.40
2022-10-27T15:29:17.160Z,7.15
2022-10-27T15:39:27.663Z,11.93
2022-10-27T15:44:27.040Z,9.10
2022-10-27T15:49:29.472Z,9.60
2022-10-27T15:54:33.245Z,11.45
2022-10-27T15:59:28.267Z,12.82
2022-10-27T16:04:32.550Z,14.25
2022-10-27T16:09:41.549Z,12.70
2022-10-27T16:14:34.982Z,11.13
2022-10-27T16:19:28.383Z,10.43
2022-10-27T16:24:24.632Z,10.18
2022-10-27T16:29:23.169Z,8.73
2022-10-27T16:34:23.632Z,8.75
2022-10-27T16:39:22.871Z,9.32
2022-10-27T16:44:17.169Z,9.30
2022-10-27T16:49:11.849Z,8.32
2022-10-27T16:54:05.336Z,8.63
2022-10-27T16:59:11.731Z,8.80
2022-10-27T17:04:05.292Z,8.43
2022-10-27T17:09:00.364Z,8.00
2022-10-27T17:13:53.866Z,9.70
2022-10-27T17:18:47.830Z,7.50
2022-10-27T17:23:42.502Z,7.57
2022-10-27T17:28:37.458Z,7.80
2022-10-27T17:33:30.949Z,7.38
2022-10-27T17:38:27.017Z,8.10
2022-10-27T17:43:20.209Z,7.13
2022-10-27T17:48:14.831Z,12.20
2022-10-27T17:53:08.095Z,17.05
2022-10-27T17:58:01.771Z,16.42
2022-10-27T18:02:55.133Z,15.25
2022-10-27T18:07:50.206Z,18.38
2022-10-27T18:12:43.537Z,18.42
2022-10-27T18:17:36.705Z,17.10
2022-10-27T18:22:30.645Z,14.70
2022-10-27T18:27:27.767Z,14.63
2022-10-27T18:32:22.501Z,12.40
2022-10-27T18:37:15.651Z,14.60
2022-10-27T18:42:08.830Z,15.40
2022-10-27T18:47:03.537Z,20.17
2022-10-27T18:51:56.748Z,19.85
2022-10-27T18:56:50.102Z,19.27
2022-10-27T19:01:44.447Z,15.02
2022-10-27T19:06:39.270Z,12.25
2022-10-27T19:11:35.359Z,13.57
2022-10-27T19:16:30.991Z,14.63
2022-10-27T19:21:27.738Z,14.98
2022-10-27T19:26:26.324Z,13.35
2022-10-27T19:31:21.712Z,18.38
2022-10-27T19:36:17.944Z,18.58
2022-10-27T19:41:12.781Z,21.60
2022-10-27T19:46:07.848Z,11.30
2022-10-27T19:51:10.455Z,9.80
2022-10-27T19:56:04.391Z,9.52
2022-10-27T20:00:57.777Z,10.43
2022-10-27T20:05:56.278Z,11.38
2022-10-27T20:10:49.805Z,8.35
2022-10-27T20:15:43.107Z,7.93
2022-10-27T20:20:36.318Z,8.95
2022-10-27T20:25:31.010Z,8.90
2022-10-27T20:30:26.748Z,8.65
2022-10-27T20:35:19.984Z,12.27
2022-10-27T20:40:21.973Z,14.32
2022-10-27T20:45:16.942Z,12.90
2022-10-27T20:50:11.204Z,13.43
2022-10-27T20:55:05.786Z,10.52
2022-10-27T20:59:59.161Z,9.02
2022-10-27T21:04:54.184Z,8.63
2022-10-27T21:09:47.486Z,7.70
2022-10-27T21:14:40.736Z,8.77
2022-10-27T21:19:36.636Z,8.05
2022-10-27T21:24:33.925Z,7.68
2022-10-27T21:29:44.864Z,7.18
2022-10-27T21:34:38.275Z,7.70
2022-10-27T21:39:32.934Z,7.00
2022-10-27T21:44:27.895Z,7.13
2022-10-27T21:49:22.213Z,6.38
2022-10-27T21:54:15.403Z,6.40
2022-10-27T21:59:10.032Z,6.18
2022-10-27T22:04:03.495Z,7.90
2022-10-27T22:08:57.572Z,6.05
2022-10-27T22:13:51.691Z,5.97
2022-10-27T22:18:47.347Z,6.35
2022-10-27T22:23:40.727Z,6.38
2022-10-27T22:28:34.276Z,7.38
2022-10-27T22:33:27.523Z,6.22
2022-10-27T22:38:22.202Z,5.53
2022-10-27T22:43:18.108Z,6.43
2022-10-27T22:48:11.305Z,5.88
2022-10-27T22:53:04.492Z,5.68
2022-10-27T22:57:59.043Z,5.50
2022-10-27T23:02:52.547Z,5.70
2022-10-27T23:07:45.985Z,5.43
2022-10-27T23:12:39.291Z,6.10
2022-10-27T23:17:33.925Z,5.85
2022-10-27T23:22:27.382Z,5.32
2022-10-27T23:27:20.826Z,4.75
2022-10-27T23:32:14.035Z,5.07
2022-10-27T23:37:08.542Z,4.35
2022-10-27T23:42:01.693Z,4.72
2022-10-27T23:46:54.918Z,5.30
2022-10-27T23:51:48.166Z,5.43
2022-10-27T23:56:43.906Z,5.50
